Time;durP1;ratioP1;P1;durP2;ratioP2;P2;SDS_P1;SDS_P2;PMS_P1;PMS_P2;Temp;Humidity;BMP_temperature;BMP_pressure;BME280_temperature;BME280_humidity;BME280_pressure;Samples;Min_cycle;Max_cycle;Signal;HPM_P1;HPM_P2
2023/08/13 00:01:40;;;;;;;7.70;4.57;;;15.80;99.90;;;;;;5051975;28;20170;-67
2023/08/13 00:04:05;;;;;;;10.60;5.03;;;15.80;99.90;;;;;;5060031;28;20643;-66
2023/08/13 00:06:31;;;;;;;13.33;5.20;;;15.80;99.90;;;;;;5072203;28;20260;-66
2023/08/13 00:08:57;;;;;;;15.57;4.63;;;15.80;99.90;;;;;;5072898;28;20198;-66
2023/08/13 00:11:23;;;;;;;17.20;6.10;;;15.70;99.90;;;;;;5071604;28;20170;-66
2023/08/13 00:13:48;;;;;;;8.80;5.07;;;15.70;99.90;;;;;;5072934;28;20593;-66
2023/08/13 00:16:14;;;;;;;10.77;4.57;;;15.70;99.90;;;;;;5071805;28;20458;-66
2023/08/13 00:18:40;;;;;;;8.13;5.07;;;15.70;99.90;;;;;;5070951;28;20251;-66
2023/08/13 00:21:06;;;;;;;8.13;4.83;;;15.70;99.90;;;;;;5072133;28;20170;-68
2023/08/13 00:23:32;;;;;;;15.33;5.57;;;15.70;99.90;;;;;;5072907;28;20408;-66
2023/08/13 00:25:57;;;;;;;9.40;5.30;;;15.70;99.90;;;;;;5070618;28;20177;-66
2023/08/13 00:28:23;;;;;;;7.63;4.87;;;15.60;99.90;;;;;;5071751;28;20190;-68
2023/08/13 00:30:49;;;;;;;10.10;5.37;;;15.70;99.90;;;;;;5071497;28;20568;-66
2023/08/13 00:33:14;;;;;;;12.67;5.10;;;15.60;99.90;;;;;;5070096;28;20185;-67
2023/08/13 00:35:40;;;;;;;15.13;5.30;;;15.60;99.90;;;;;;5071754;28;20173;-68
2023/08/13 00:38:06;;;;;;;9.37;6.40;;;15.60;99.90;;;;;;5070561;28;20229;-66
2023/08/13 00:40:34;;;;;;;15.97;6.03;;;15.50;99.90;;;;;;5072687;28;20159;-66
2023/08/13 00:43:00;;;;;;;8.70;5.37;;;15.60;99.90;;;;;;5072751;28;20158;-66
2023/08/13 00:45:26;;;;;;;15.63;5.67;;;15.50;99.90;;;;;;5060316;28;20429;-66
2023/08/13 00:47:52;;;;;;;16.07;5.20;;;15.50;99.90;;;;;;5051862;28;20452;-66
2023/08/13 00:50:18;;;;;;;11.13;6.00;;;15.50;99.90;;;;;;5072783;28;20401;-67
2023/08/13 00:52:44;;;;;;;16.00;6.23;;;15.50;99.90;;;;;;5072372;28;20751;-68
2023/08/13 00:55:11;;;;;;;12.33;4.90;;;15.50;99.90;;;;;;5070668;28;20185;-67
2023/08/13 00:57:37;;;;;;;15.50;5.80;;;15.40;99.90;;;;;;5071211;28;20543;-66
2023/08/13 01:00:06;;;;;;;11.63;6.00;;;15.40;99.90;;;;;;5072479;28;20450;-66
2023/08/13 01:02:32;;;;;;;12.43;6.30;;;15.40;99.90;;;;;;5073885;28;20428;-67
2023/08/13 01:04:59;;;;;;;5.37;4.53;;;15.40;99.90;;;;;;5059010;28;20436;-68
2023/08/13 01:07:54;;;;;;;12.37;4.80;;;15.40;99.90;;;;;;5055316;28;20433;-66
2023/08/13 01:10:34;;;;;;;7.43;5.03;;;15.40;99.90;;;;;;5054300;28;20425;-66
2023/08/13 01:13:10;;;;;;;12.67;4.40;;;15.40;99.90;;;;;;5055574;28;20404;-67
2023/08/13 01:15:41;;;;;;;13.97;5.40;;;15.40;99.90;;;;;;5054728;28;20401;-68
2023/08/13 01:18:09;;;;;;;8.40;4.70;;;15.40;99.90;;;;;;5056013;28;20535;-66
2023/08/13 01:20:37;;;;;;;4.87;4.37;;;15.30;99.90;;;;;;5074286;28;20460;-67
2023/08/13 01:23:03;;;;;;;12.07;5.23;;;15.30;99.90;;;;;;5076035;28;20475;-68
2023/08/13 01:25:29;;;;;;;12.20;5.40;;;15.30;99.90;;;;;;5073830;28;20830;-68
2023/08/13 01:28:03;;;;;;;7.90;5.20;;;15.30;99.90;;;;;;5075718;28;20520;-68
2023/08/13 01:30:44;;;;;;;8.63;4.73;;;15.20;99.90;;;;;;5073725;28;20777;-67
2023/08/13 01:33:19;;;;;;;6.17;4.90;;;15.20;99.90;;;;;;5075830;28;20487;-67
2023/08/13 01:35:47;;;;;;;7.50;6.03;;;15.20;99.90;;;;;;5073174;28;20423;-67
2023/08/13 01:38:14;;;;;;;11.23;5.50;;;15.20;99.90;;;;;;5075721;28;20482;-67
2023/08/13 01:40:39;;;;;;;8.93;5.07;;;15.20;99.90;;;;;;5075684;28;20424;-67
2023/08/13 01:43:05;;;;;;;12.00;5.03;;;15.20;99.90;;;;;;5075680;28;20401;-67
2023/08/13 01:45:31;;;;;;;13.23;5.73;;;15.10;99.90;;;;;;5062809;28;20178;-67
2023/08/13 01:47:56;;;;;;;9.00;6.63;;;15.10;99.90;;;;;;5054138;28;20203;-67
2023/08/13 01:50:23;;;;;;;14.80;8.43;;;15.10;99.90;;;;;;5067222;28;20189;-68
2023/08/13 01:52:49;;;;;;;15.97;8.73;;;15.10;99.90;;;;;;5074174;28;20698;-67
2023/08/13 01:55:14;;;;;;;13.07;9.20;;;15.10;99.90;;;;;;5063611;28;20598;-67
2023/08/13 01:57:40;;;;;;;21.60;10.10;;;15.10;99.90;;;;;;5054053;28;20211;-68
2023/08/13 02:00:07;;;;;;;13.37;7.87;;;15.10;99.90;;;;;;5054005;28;20181;-66
2023/08/13 02:02:34;;;;;;;16.97;8.53;;;15.10;99.90;;;;;;5055272;28;20173;-67
2023/08/13 02:04:59;;;;;;;17.23;9.90;;;15.10;99.90;;;;;;5062300;28;20427;-67
2023/08/13 02:07:25;;;;;;;13.90;9.20;;;15.10;99.90;;;;;;5074082;28;20812;-66
2023/08/13 02:09:51;;;;;;;18.13;12.03;;;15.10;99.90;;;;;;5074890;28;20720;-69
2023/08/13 02:12:16;;;;;;;12.13;9.87;;;15.10;99.90;;;;;;5074523;28;20200;-67
2023/08/13 02:14:42;;;;;;;14.77;9.60;;;15.10;99.90;;;;;;5074030;28;20177;-67
2023/08/13 02:17:12;;;;;;;13.17;9.37;;;15.10;99.90;;;;;;5073959;28;20202;-67
2023/08/13 02:19:40;;;;;;;14.20;8.37;;;15.10;99.90;;;;;;5073441;28;20651;-67
2023/08/13 02:22:06;;;;;;;13.77;9.03;;;15.10;99.90;;;;;;5074790;28;20400;-67
2023/08/13 02:24:31;;;;;;;16.30;9.70;;;15.00;99.90;;;;;;5074810;28;20450;-67
2023/08/13 02:26:57;;;;;;;15.30;9.23;;;15.00;99.90;;;;;;5073100;28;20428;-67
2023/08/13 02:29:23;;;;;;;13.20;9.20;;;15.00;99.90;;;;;;5073772;28;20581;-67
2023/08/13 02:31:48;;;;;;;14.57;9.63;;;14.90;99.90;;;;;;5073684;28;20180;-67
2023/08/13 02:34:14;;;;;;;15.83;9.80;;;14.90;99.90;;;;;;5073175;28;20190;-67
2023/08/13 02:36:40;;;;;;;18.50;9.40;;;14.90;99.90;;;;;;5072200;28;20201;-69
2023/08/13 02:39:05;;;;;;;13.27;9.23;;;14.90;99.90;;;;;;5074476;28;20172;-71
2023/08/13 02:41:31;;;;;;;15.80;9.60;;;14.80;99.90;;;;;;5074414;28;20174;-67
2023/08/13 02:43:57;;;;;;;16.00;9.90;;;14.90;99.90;;;;;;5073703;28;20163;-68
2023/08/13 02:46:25;;;;;;;12.30;8.80;;;14.80;99.90;;;;;;5072228;28;20174;-67
2023/08/13 02:48:56;;;;;;;20.93;9.73;;;14.90;99.90;;;;;;5073014;28;20651;-66
2023/08/13 02:51:23;;;;;;;18.23;9.73;;;14.90;99.90;;;;;;5074360;28;20892;-66
2023/08/13 02:53:49;;;;;;;18.30;9.60;;;14.90;99.90;;;;;;5063522;28;20799;-67
2023/08/13 02:56:15;;;;;;;13.70;10.13;;;14.90;99.90;;;;;;5053309;28;20456;-67
2023/08/13 02:58:40;;;;;;;18.40;9.70;;;14.90;99.90;;;;;;5053087;28;20193;-67
2023/08/13 03:01:06;;;;;;;16.30;9.97;;;14.90;99.90;;;;;;5054168;28;20489;-67
2023/08/13 03:03:32;;;;;;;19.10;10.13;;;14.90;99.90;;;;;;5063793;28;20523;-67
2023/08/13 03:05:58;;;;;;;11.50;8.00;;;15.00;99.90;;;;;;5073157;28;20167;-67
2023/08/13 03:08:24;;;;;;;12.57;8.17;;;15.00;99.90;;;;;;5073907;28;20303;-71
2023/08/13 03:10:50;;;;;;;15.63;9.57;;;15.00;99.90;;;;;;5074063;28;20393;-67
2023/08/13 03:13:16;;;;;;;9.90;6.97;;;15.00;99.90;;;;;;5064593;28;20524;-66
2023/08/13 03:15:41;;;;;;;11.70;8.03;;;14.90;99.90;;;;;;5052037;28;20535;-72
2023/08/13 03:18:07;;;;;;;18.87;7.50;;;14.90;99.90;;;;;;5058787;28;20467;-67
2023/08/13 03:20:33;;;;;;;13.17;7.70;;;14.90;99.90;;;;;;5072576;28;20619;-68
2023/08/13 03:22:59;;;;;;;10.23;7.40;;;14.90;99.90;;;;;;5074212;28;20173;-67
2023/08/13 03:25:25;;;;;;;12.67;7.53;;;14.90;99.90;;;;;;5072534;28;20405;-67
2023/08/13 03:27:51;;;;;;;10.90;7.40;;;14.90;99.90;;;;;;5071399;28;20251;-67
2023/08/13 03:30:17;;;;;;;12.33;7.20;;;14.90;99.90;;;;;;5072577;28;20413;-67
2023/08/13 03:32:42;;;;;;;9.63;7.10;;;14.90;99.90;;;;;;5070484;28;20350;-69
2023/08/13 03:35:08;;;;;;;12.07;8.40;;;14.90;99.90;;;;;;5071326;28;20509;-67
2023/08/13 03:37:34;;;;;;;9.77;8.00;;;14.90;99.90;;;;;;5072949;28;20198;-69
2023/08/13 03:40:00;;;;;;;11.90;7.67;;;14.90;99.90;;;;;;5071815;28;20174;-67
2023/08/13 03:42:26;;;;;;;15.90;7.13;;;14.80;99.90;;;;;;5072354;28;20194;-68
2023/08/13 03:44:52;;;;;;;24.20;9.43;;;14.80;99.90;;;;;;5072279;28;20974;-67
2023/08/13 03:47:17;;;;;;;12.73;7.47;;;14.80;99.90;;;;;;5072445;28;20189;-68
2023/08/13 03:49:43;;;;;;;13.40;7.53;;;14.80;99.90;;;;;;5055919;28;20209;-69
2023/08/13 03:52:12;;;;;;;10.73;7.50;;;14.80;99.90;;;;;;5053331;28;20218;-68
2023/08/13 03:54:37;;;;;;;11.33;7.83;;;14.80;99.90;;;;;;5052870;28;20214;-70
2023/08/13 03:57:03;;;;;;;12.57;7.80;;;14.80;99.90;;;;;;5050474;28;20504;-67
2023/08/13 03:59:29;;;;;;;10.30;7.20;;;14.80;99.90;;;;;;5051964;28;20167;-67
2023/08/13 04:01:57;;;;;;;10.93;7.87;;;14.80;99.90;;;;;;5053064;28;20241;-68
2023/08/13 04:04:23;;;;;;;9.50;7.00;;;14.70;99.90;;;;;;5062654;28;20173;-69
2023/08/13 04:06:48;;;;;;;12.57;8.50;;;14.70;99.90;;;;;;5071076;28;20408;-68
2023/08/13 04:09:14;;;;;;;13.67;7.33;;;14.70;99.90;;;;;;5071920;28;20175;-67
2023/08/13 04:11:40;;;;;;;10.07;7.43;;;14.70;99.90;;;;;;5073097;28;20177;-67
2023/08/13 04:14:06;;;;;;;11.13;8.00;;;14.70;99.90;;;;;;5070283;28;20189;-66
2023/08/13 04:16:31;;;;;;;8.17;7.40;;;14.70;99.90;;;;;;5072029;28;20273;-68
2023/08/13 04:18:57;;;;;;;8.03;6.83;;;14.70;99.90;;;;;;5065393;28;20689;-69
2023/08/13 04:21:26;;;;;;;8.90;7.70;;;14.70;99.90;;;;;;5051523;28;20174;-67
2023/08/13 04:23:58;;;;;;;12.23;7.90;;;14.70;99.90;;;;;;5052901;28;20208;-67
2023/08/13 04:26:24;;;;;;;12.70;7.00;;;14.70;99.90;;;;;;5050932;28;20470;-69
2023/08/13 04:28:51;;;;;;;9.63;6.90;;;14.70;99.90;;;;;;5052787;28;20459;-66
2023/08/13 04:31:18;;;;;;;13.03;8.30;;;14.70;99.90;;;;;;5050729;28;21151;-70
2023/08/13 04:33:43;;;;;;;11.70;5.97;;;14.70;99.90;;;;;;5053977;28;20425;-72
2023/08/13 04:36:09;;;;;;;8.73;6.47;;;14.70;99.90;;;;;;5072813;28;20489;-67
2023/08/13 04:38:35;;;;;;;8.30;7.10;;;14.80;99.90;;;;;;5076778;28;20186;-67
2023/08/13 04:41:02;;;;;;;8.80;5.80;;;14.80;99.90;;;;;;5075585;28;20177;-70
2023/08/13 04:43:28;;;;;;;18.00;7.00;;;14.90;99.90;;;;;;5076824;28;20559;-67
2023/08/13 04:45:53;;;;;;;8.43;7.13;;;14.80;99.90;;;;;;5072682;28;20440;-67
2023/08/13 04:48:48;;;;;;;7.87;5.93;;;14.90;99.90;;;;;;5075224;28;20201;-69
2023/08/13 04:51:17;;;;;;;9.70;7.40;;;14.90;99.90;;;;;;5065582;28;20693;-68
2023/08/13 04:53:43;;;;;;;11.23;5.73;;;14.90;99.90;;;;;;5056627;28;20447;-69
2023/08/13 04:56:09;;;;;;;9.07;5.73;;;14.90;99.90;;;;;;5055703;28;20488;-66
2023/08/13 04:58:35;;;;;;;9.70;6.30;;;14.90;99.90;;;;;;5056335;28;20483;-67
2023/08/13 05:01:01;;;;;;;10.80;6.10;;;14.90;99.90;;;;;;5056493;28;20191;-70
2023/08/13 05:03:27;;;;;;;9.03;6.37;;;15.00;99.90;;;;;;5065800;28;20181;-67
2023/08/13 05:05:53;;;;;;;7.90;6.17;;;15.00;99.90;;;;;;5072070;28;20523;-67
2023/08/13 05:08:18;;;;;;;8.20;5.67;;;15.00;99.90;;;;;;5076373;28;20543;-66
2023/08/13 05:10:45;;;;;;;10.30;5.73;;;15.10;99.90;;;;;;5075263;28;20562;-68
2023/08/13 05:13:12;;;;;;;9.60;4.97;;;15.10;99.90;;;;;;5075942;28;20539;-68
2023/08/13 05:15:38;;;;;;;6.90;4.50;;;15.10;99.90;;;;;;5075255;28;20473;-67
2023/08/13 05:18:04;;;;;;;11.57;5.60;;;15.10;99.90;;;;;;5071558;28;20471;-67
2023/08/13 05:20:29;;;;;;;12.17;5.20;;;15.10;99.90;;;;;;5074268;28;20178;-67
2023/08/13 05:22:55;;;;;;;6.10;5.50;;;15.10;99.90;;;;;;5075557;28;20392;-68
2023/08/13 05:25:21;;;;;;;9.77;5.37;;;15.20;99.90;;;;;;5074805;28;20174;-69
2023/08/13 05:27:46;;;;;;;9.03;4.90;;;15.20;99.90;;;;;;5075710;28;20559;-67
2023/08/13 05:30:12;;;;;;;10.67;5.93;;;15.20;99.90;;;;;;5075003;28;20627;-67
2023/08/13 05:32:38;;;;;;;12.13;4.80;;;15.20;99.90;;;;;;5062838;28;20187;-68
2023/08/13 05:35:04;;;;;;;6.20;5.03;;;15.30;99.90;;;;;;5069519;28;20186;-74
2023/08/13 05:37:30;;;;;;;6.80;4.60;;;15.30;99.90;;;;;;5075629;28;20205;-67
2023/08/13 05:39:56;;;;;;;7.10;5.03;;;15.40;99.90;;;;;;5075648;28;20404;-67
2023/08/13 05:42:21;;;;;;;6.07;4.67;;;15.40;99.90;;;;;;5075734;28;20293;-74
2023/08/13 05:44:48;;;;;;;12.73;4.53;;;15.40;99.90;;;;;;5074800;28;20194;-66
2023/08/13 05:47:14;;;;;;;9.40;5.10;;;15.40;99.90;;;;;;5072345;28;20213;-67
2023/08/13 05:49:40;;;;;;;7.67;4.07;;;15.50;99.90;;;;;;5072905;28;20824;-67
2023/08/13 05:52:05;;;;;;;8.57;4.80;;;15.50;99.90;;;;;;5075457;28;20217;-66
2023/08/13 05:54:32;;;;;;;9.53;5.30;;;15.60;99.90;;;;;;5075422;28;20264;-66
2023/08/13 05:57:00;;;;;;;6.73;4.97;;;15.70;99.90;;;;;;5074401;28;20237;-66
2023/08/13 05:59:25;;;;;;;8.23;3.80;;;15.60;99.90;;;;;;5075545;28;20396;-65
2023/08/13 06:01:51;;;;;;;8.80;4.40;;;15.70;99.90;;;;;;5070316;28;20571;-67
2023/08/13 06:04:17;;;;;;;8.23;4.63;;;15.80;99.90;;;;;;5056336;28;20174;-66
2023/08/13 06:06:42;;;;;;;7.40;3.83;;;15.80;99.90;;;;;;5057462;28;20214;-68
2023/08/13 06:09:09;;;;;;;17.10;5.23;;;15.90;99.90;;;;;;5055204;28;20171;-67
2023/08/13 06:11:34;;;;;;;8.57;4.17;;;16.00;99.90;;;;;;5055176;28;20179;-68
2023/08/13 06:14:00;;;;;;;5.67;3.20;;;16.00;99.90;;;;;;5054920;28;20446;-68
2023/08/13 06:16:26;;;;;;;8.07;5.27;;;16.00;99.90;;;;;;5054065;28;20229;-68
2023/08/13 06:18:52;;;;;;;8.20;4.30;;;16.10;99.90;;;;;;5054675;28;20216;-71
2023/08/13 06:21:18;;;;;;;9.67;4.03;;;16.10;99.90;;;;;;5073151;28;20212;-67
2023/08/13 06:23:43;;;;;;;8.10;4.27;;;16.20;99.90;;;;;;5074930;28;20244;-72
2023/08/13 06:26:09;;;;;;;5.50;4.03;;;16.20;99.90;;;;;;5073886;28;20400;-67
2023/08/13 06:28:35;;;;;;;11.60;4.40;;;16.30;99.90;;;;;;5073076;28;20621;-68
2023/08/13 06:31:01;;;;;;;7.23;4.50;;;16.30;99.90;;;;;;5074940;28;20220;-70
2023/08/13 06:33:27;;;;;;;5.63;4.03;;;16.40;99.90;;;;;;5074847;28;20539;-67
2023/08/13 06:35:53;;;;;;;7.40;3.80;;;16.40;99.90;;;;;;5072008;28;20443;-68
2023/08/13 06:38:18;;;;;;;15.13;4.20;;;16.50;99.90;;;;;;5072546;28;20287;-67
2023/08/13 06:40:44;;;;;;;9.90;3.80;;;16.50;99.90;;;;;;5074515;28;20162;-67
2023/08/13 06:43:11;;;;;;;5.30;3.40;;;16.60;99.90;;;;;;5070699;28;20177;-68
2023/08/13 06:45:36;;;;;;;12.30;4.17;;;16.60;99.90;;;;;;5062765;28;20412;-67
2023/08/13 06:48:04;;;;;;;10.33;4.17;;;16.70;99.90;;;;;;5074339;28;20963;-68
2023/08/13 06:50:30;;;;;;;7.60;4.07;;;16.70;99.90;;;;;;5060552;28;20211;-68
2023/08/13 06:52:56;;;;;;;8.17;3.93;;;16.80;99.90;;;;;;5054334;28;20405;-69
2023/08/13 06:55:25;;;;;;;14.60;4.73;;;16.70;99.90;;;;;;5056302;28;20445;-68
2023/08/13 06:57:51;;;;;;;17.17;4.67;;;16.70;99.90;;;;;;5053618;28;20483;-67
2023/08/13 07:00:19;;;;;;;14.40;4.10;;;16.80;99.90;;;;;;5053656;28;20898;-69
2023/08/13 07:02:45;;;;;;;9.03;3.83;;;16.80;99.90;;;;;;5054226;28;20171;-68
2023/08/13 07:05:12;;;;;;;11.53;3.63;;;16.90;99.90;;;;;;5065174;28;20506;-67
2023/08/13 07:07:38;;;;;;;4.60;4.03;;;16.90;99.90;;;;;;5072181;28;20448;-68
2023/08/13 07:10:05;;;;;;;11.47;4.30;;;17.00;99.90;;;;;;5073888;28;20919;-68
2023/08/13 07:12:30;;;;;;;10.20;3.77;;;17.00;99.90;;;;;;5073912;28;20492;-68
2023/08/13 07:14:56;;;;;;;7.60;4.03;;;17.10;99.90;;;;;;5072714;28;20874;-70
2023/08/13 07:17:22;;;;;;;7.20;3.70;;;17.20;99.90;;;;;;5072823;28;20210;-67
2023/08/13 07:19:49;;;;;;;10.50;4.17;;;17.20;99.90;;;;;;5054691;28;20179;-69
2023/08/13 07:22:15;;;;;;;11.30;4.57;;;17.20;99.90;;;;;;5053802;28;20201;-68
2023/08/13 07:24:40;;;;;;;10.03;3.67;;;17.30;97.60;;;;;;5053629;28;20833;-69
2023/08/13 07:27:07;;;;;;;6.33;3.87;;;17.40;95.90;;;;;;5052720;28;20425;-71
2023/08/13 07:29:33;;;;;;;10.87;3.97;;;17.40;89.80;;;;;;5053773;28;20190;-68
2023/08/13 07:31:59;;;;;;;10.30;4.50;;;17.50;86.50;;;;;;5053418;28;20894;-69
2023/08/13 07:34:24;;;;;;;10.70;4.40;;;17.50;82.70;;;;;;5054587;28;20183;-73
2023/08/13 07:36:51;;;;;;;5.00;4.07;;;17.60;81.80;;;;;;5052409;28;20445;-68
2023/08/13 07:39:16;;;;;;;17.40;3.63;;;17.70;80.90;;;;;;5053422;28;20167;-68
2023/08/13 07:41:43;;;;;;;7.50;4.30;;;17.80;78.90;;;;;;5053569;28;20389;-69
2023/08/13 07:44:08;;;;;;;8.03;4.60;;;17.80;67.70;;;;;;5053411;28;20654;-69
2023/08/13 07:46:34;;;;;;;6.10;3.80;;;17.90;64.50;;;;;;5052088;28;20402;-69
2023/08/13 07:49:00;;;;;;;11.37;3.93;;;17.90;53.00;;;;;;5064466;28;20259;-69
2023/08/13 07:51:25;;;;;;;12.23;4.30;;;18.00;40.60;;;;;;5072385;28;20253;-69
2023/08/13 07:53:51;;;;;;;5.47;3.77;;;18.10;22.60;;;;;;5071834;28;20319;-68
2023/08/13 07:56:17;;;;;;;5.50;4.00;;;18.10;1.00;;;;;;5072498;28;20177;-68
2023/08/13 07:58:43;;;;;;;12.07;4.53;;;18.20;1.00;;;;;;5072936;28;20542;-68
2023/08/13 08:01:08;;;;;;;7.63;4.87;;;18.30;1.00;;;;;;5071728;28;20173;-71
2023/08/13 08:03:34;;;;;;;11.17;4.10;;;18.40;1.00;;;;;;5065089;28;20178;-67
2023/08/13 08:06:00;;;;;;;12.07;4.10;;;18.50;1.00;;;;;;5071215;28;20647;-67
2023/08/13 08:08:25;;;;;;;10.27;5.10;;;18.60;1.00;;;;;;5072125;28;20218;-73
2023/08/13 08:10:51;;;;;;;12.60;5.00;;;18.50;1.00;;;;;;5072088;28;20171;-68
2023/08/13 08:13:17;;;;;;;10.80;4.33;;;18.50;1.00;;;;;;5072964;28;20166;-67
2023/08/13 08:15:42;;;;;;;7.70;4.03;;;18.60;1.00;;;;;;5067721;28;20190;-73
2023/08/13 08:18:08;;;;;;;12.63;4.23;;;18.70;1.00;;;;;;5051531;28;20213;-72
2023/08/13 08:20:34;;;;;;;10.53;4.47;;;18.90;1.00;;;;;;5052820;28;20300;-69
2023/08/13 08:23:00;;;;;;;10.77;4.03;;;18.90;1.00;;;;;;5052783;28;20163;-69
2023/08/13 08:25:25;;;;;;;9.50;3.80;;;18.90;1.00;;;;;;5051984;28;20701;-71
2023/08/13 08:27:51;;;;;;;13.43;4.70;;;19.00;1.00;;;;;;5051832;28;20278;-69
2023/08/13 08:30:17;;;;;;;9.53;3.10;;;19.00;1.00;;;;;;5053056;28;20183;-70
2023/08/13 08:32:42;;;;;;;4.43;3.10;;;19.10;1.00;;;;;;5052698;28;20224;-69
2023/08/13 08:35:08;;;;;;;14.03;4.40;;;19.20;1.00;;;;;;5051684;28;20308;-69
2023/08/13 08:37:34;;;;;;;10.20;3.97;;;19.10;1.00;;;;;;5052503;28;20626;-71
2023/08/13 08:40:01;;;;;;;7.63;4.20;;;19.10;99.90;;;;;;5052642;28;20173;-69
2023/08/13 08:42:29;;;;;;;7.90;4.40;;;19.10;99.90;;;;;;5052692;28;20670;-71
2023/08/13 08:44:59;;;;;;;11.40;5.57;;;19.10;99.90;;;;;;5053814;28;20936;-71
2023/08/13 08:47:26;;;;;;;15.53;4.40;;;19.10;99.90;;;;;;5071211;28;20466;-70
2023/08/13 08:49:54;;;;;;;19.43;4.50;;;19.20;99.90;;;;;;5072442;28;20408;-68
2023/08/13 08:52:20;;;;;;;8.70;2.93;;;19.20;99.90;;;;;;5071710;28;20462;-69
2023/08/13 08:54:48;;;;;;;6.70;4.00;;;19.30;99.90;;;;;;5072485;28;20789;-70
2023/08/13 08:57:14;;;;;;;6.13;3.63;;;19.40;99.90;;;;;;5071442;28;20202;-71
2023/08/13 08:59:40;;;;;;;6.93;3.70;;;19.40;99.90;;;;;;5060114;28;20767;-69
2023/08/13 09:02:06;;;;;;;9.80;3.77;;;19.50;99.90;;;;;;5052490;28;20404;-69
2023/08/13 09:04:31;;;;;;;15.77;3.20;;;19.60;99.90;;;;;;5052414;28;20171;-71
2023/08/13 09:06:58;;;;;;;12.43;4.87;;;19.60;99.90;;;;;;5050819;28;20191;-71
2023/08/13 09:09:25;;;;;;;10.27;3.80;;;19.80;99.90;;;;;;5067044;28;20182;-69
2023/08/13 09:11:51;;;;;;;7.73;3.53;;;20.00;99.90;;;;;;5071115;28;20412;-70
2023/08/13 09:14:18;;;;;;;7.00;3.10;;;20.00;99.90;;;;;;5064764;28;20782;-71
2023/08/13 09:16:56;;;;;;;12.77;3.33;;;20.10;99.90;;;;;;5051241;28;20941;-72
2023/08/13 09:19:24;;;;;;;8.03;3.30;;;20.30;99.90;;;;;;5051042;28;20412;-71
2023/08/13 09:21:52;;;;;;;7.30;3.00;;;20.50;99.90;;;;;;5052694;28;20402;-71
2023/08/13 09:24:18;;;;;;;5.13;3.17;;;20.70;99.90;;;;;;5055956;28;20409;-71
2023/08/13 09:26:45;;;;;;;7.40;3.10;;;20.70;99.90;;;;;;5054157;28;20409;-69
2023/08/13 09:29:11;;;;;;;5.87;2.30;;;20.80;99.90;;;;;;5067057;28;20428;-73
2023/08/13 09:31:37;;;;;;;7.87;2.37;;;20.80;99.90;;;;;;5075885;28;20398;-69
2023/08/13 09:34:03;;;;;;;5.73;2.73;;;20.80;99.90;;;;;;5075882;28;20873;-70
2023/08/13 09:36:29;;;;;;;10.17;3.20;;;20.90;99.90;;;;;;5073826;28;20171;-71
2023/08/13 09:38:56;;;;;;;6.80;2.70;;;21.00;99.90;;;;;;5074517;28;20447;-68
2023/08/13 09:41:22;;;;;;;8.60;2.67;;;21.20;99.90;;;;;;5074533;28;20841;-69
2023/08/13 09:43:50;;;;;;;7.43;3.03;;;21.70;99.90;;;;;;5072699;28;20511;-72
2023/08/13 09:46:20;;;;;;;6.00;2.60;;;22.30;99.90;;;;;;5074307;28;20401;-69
2023/08/13 09:48:47;;;;;;;4.53;2.03;;;22.40;82.00;;;;;;5075570;28;20461;-68
2023/08/13 09:51:14;;;;;;;3.77;2.40;;;22.60;55.00;;;;;;5075518;28;20881;-68
2023/08/13 09:53:44;;;;;;;7.33;2.20;;;22.90;28.80;;;;;;5075462;28;20511;-72
2023/08/13 09:56:10;;;;;;;5.80;2.70;;;22.70;1.00;;;;;;5073674;28;20407;-71
2023/08/13 09:58:37;;;;;;;5.63;2.10;;;22.70;1.00;;;;;;5059953;28;20460;-69
2023/08/13 10:01:03;;;;;;;5.83;2.80;;;22.80;1.00;;;;;;5055484;28;20398;-72
2023/08/13 10:03:30;;;;;;;4.07;2.33;;;23.20;1.00;;;;;;5055300;28;20409;-70
2023/08/13 10:05:57;;;;;;;7.10;3.27;;;23.60;1.00;;;;;;5053080;28;20429;-68
2023/08/13 10:08:23;;;;;;;4.80;2.37;;;23.80;1.00;;;;;;5054252;28;20516;-73
2023/08/13 10:10:49;;;;;;;4.07;2.03;;;24.00;1.00;;;;;;5055249;28;20405;-70
2023/08/13 10:13:15;;;;;;;6.83;2.40;;;24.40;1.00;;;;;;5055044;28;20436;-68
2023/08/13 10:15:42;;;;;;;9.20;2.63;;;24.60;1.00;;;;;;5066949;28;20520;-71
2023/08/13 10:18:09;;;;;;;7.00;1.57;;;24.30;1.00;;;;;;5066133;28;20209;-68
2023/08/13 10:20:35;;;;;;;5.50;2.40;;;23.90;1.00;;;;;;5053697;28;20890;-69
2023/08/13 10:23:01;;;;;;;3.97;2.10;;;23.30;1.00;;;;;;5054035;28;20431;-68
2023/08/13 10:25:29;;;;;;;10.80;2.00;;;23.00;1.00;;;;;;5053315;28;20249;-71
2023/08/13 10:27:56;;;;;;;2.13;1.80;;;22.70;1.00;;;;;;5054680;28;20564;-68
2023/08/13 10:30:22;;;;;;;8.03;2.17;;;22.60;1.00;;;;;;5054915;28;20401;-71
2023/08/13 10:32:54;;;;;;;5.00;2.37;;;22.30;1.00;;;;;;5054630;28;20773;-68
2023/08/13 10:35:29;;;;;;;6.93;2.17;;;22.10;1.00;;;;;;5052981;28;20205;-72
2023/08/13 10:38:00;;;;;;;4.27;2.20;;;21.90;1.00;;;;;;5054377;28;20457;-72
2023/08/13 10:40:26;;;;;;;3.30;1.77;;;22.40;1.00;;;;;;5054390;28;20396;-70
2023/08/13 10:42:54;;;;;;;12.27;2.53;;;23.10;1.00;;;;;;5068146;28;20432;-68
2023/08/13 10:45:23;;;;;;;6.03;2.30;;;23.80;1.00;;;;;;5073666;28;20468;-69
2023/08/13 10:48:03;;;;;;;7.57;2.13;;;24.40;1.00;;;;;;5074383;28;20427;-72
2023/08/13 10:50:47;;;;;;;4.13;1.43;;;25.30;1.00;;;;;;5072106;28;20429;-69
2023/08/13 10:53:19;;;;;;;4.83;2.40;;;25.80;1.00;;;;;;5074392;28;20471;-70
2023/08/13 10:55:52;;;;;;;5.07;2.90;;;26.20;1.00;;;;;;5073768;28;20415;-71
2023/08/13 10:58:37;;;;;;;4.87;1.80;;;26.00;1.00;;;;;;5066531;28;20468;-70
2023/08/13 11:01:12;;;;;;;6.33;2.53;;;25.40;1.00;;;;;;5074029;28;20420;-70
2023/08/13 11:03:56;;;;;;;6.83;2.77;;;24.90;1.00;;;;;;5074361;28;20495;-69
2023/08/13 11:06:24;;;;;;;3.03;2.10;;;25.10;1.00;;;;;;5070967;28;20440;-68
2023/08/13 11:08:50;;;;;;;4.90;2.10;;;25.70;1.00;;;;;;5074076;28;20417;-68
2023/08/13 11:11:17;;;;;;;8.43;2.70;;;26.00;1.00;;;;;;5074134;28;20499;-70
2023/08/13 11:13:43;;;;;;;3.83;3.27;;;26.00;1.00;;;;;;5072274;28;20436;-71
2023/08/13 11:16:09;;;;;;;8.43;1.83;;;25.70;1.00;;;;;;5072782;28;20405;-68
2023/08/13 11:18:34;;;;;;;2.93;1.67;;;25.20;1.00;;;;;;5073549;28;20808;-68
2023/08/13 11:21:01;;;;;;;4.10;2.43;;;24.80;1.00;;;;;;5072835;28;20642;-67
2023/08/13 11:23:26;;;;;;;2.23;1.47;;;24.40;1.00;;;;;;5072986;28;20175;-70
2023/08/13 11:25:52;;;;;;;3.47;1.87;;;24.00;1.00;;;;;;5072990;28;20409;-71
2023/08/13 11:28:23;;;;;;;4.70;1.80;;;24.20;1.00;;;;;;5059164;28;20206;-69
2023/08/13 11:30:51;;;;;;;3.53;1.87;;;24.80;1.00;;;;;;5054016;28;20290;-68
2023/08/13 11:33:17;;;;;;;3.83;1.90;;;25.80;1.00;;;;;;5053805;28;20849;-71
2023/08/13 11:35:44;;;;;;;7.87;2.40;;;26.00;1.00;;;;;;5052647;28;20401;-72
2023/08/13 11:38:10;;;;;;;1.97;1.77;;;26.10;1.00;;;;;;5052164;28;20211;-70
2023/08/13 11:40:36;;;;;;;3.90;1.73;;;26.10;1.00;;;;;;5053539;28;20890;-69
2023/08/13 11:43:02;;;;;;;3.13;1.97;;;25.60;1.00;;;;;;5061642;28;20436;-71
2023/08/13 11:45:31;;;;;;;5.23;1.73;;;25.00;1.00;;;;;;5072648;28;20166;-71
2023/08/13 11:48:12;;;;;;;8.43;2.70;;;24.90;1.00;;;;;;5073375;28;20428;-68
2023/08/13 11:50:39;;;;;;;2.60;1.80;;;24.60;1.00;;;;;;5069100;28;20437;-68
2023/08/13 11:53:15;;;;;;;3.77;2.77;;;24.10;1.00;;;;;;5053209;28;20457;-71
2023/08/13 11:55:44;;;;;;;2.70;1.53;;;24.00;1.00;;;;;;5052107;28;20429;-68
2023/08/13 11:58:10;;;;;;;2.77;1.73;;;24.90;1.00;;;;;;5057453;28;20834;-69
2023/08/13 12:00:36;;;;;;;6.10;1.90;;;25.80;1.00;;;;;;5053165;28;20398;-70
2023/08/13 12:03:03;;;;;;;8.17;2.40;;;26.10;1.00;;;;;;5053200;28;20433;-70
2023/08/13 12:05:33;;;;;;;7.30;2.10;;;26.30;1.00;;;;;;5060245;28;20428;-68
2023/08/13 12:08:00;;;;;;;9.10;1.80;;;26.60;1.00;;;;;;5073089;28;20759;-68
2023/08/13 12:10:26;;;;;;;4.67;2.20;;;26.50;1.00;;;;;;5073161;28;20437;-71
2023/08/13 12:12:52;;;;;;;4.23;1.50;;;26.10;1.00;;;;;;5071328;28;20463;-70
2023/08/13 12:15:24;;;;;;;5.30;1.50;;;25.90;1.00;;;;;;5071675;28;20443;-70
2023/08/13 12:17:51;;;;;;;11.03;2.17;;;25.40;1.00;;;;;;5072940;28;20205;-68
2023/08/13 12:20:17;;;;;;;3.90;2.10;;;25.00;1.00;;;;;;5072903;28;20397;-68
2023/08/13 12:22:43;;;;;;;5.53;2.07;;;24.70;1.00;;;;;;5070427;28;20424;-68
2023/08/13 12:25:08;;;;;;;2.47;1.87;;;24.40;1.00;;;;;;5070861;28;20174;-68
2023/08/13 12:27:34;;;;;;;4.10;2.13;;;24.00;1.00;;;;;;5066353;28;20209;-72
2023/08/13 12:30:01;;;;;;;4.00;2.10;;;23.90;1.00;;;;;;5052941;28;20170;-68
2023/08/13 12:32:26;;;;;;;2.87;2.07;;;23.70;1.00;;;;;;5062060;28;20939;-69
2023/08/13 12:34:52;;;;;;;2.77;1.97;;;23.90;1.00;;;;;;5071980;28;20532;-68
2023/08/13 12:37:18;;;;;;;2.77;1.90;;;24.50;1.00;;;;;;5072031;28;20622;-69
2023/08/13 12:39:44;;;;;;;5.87;2.40;;;25.00;1.00;;;;;;5072636;28;20227;-70
2023/08/13 12:42:10;;;;;;;2.27;1.60;;;25.10;1.00;;;;;;5071466;28;20178;-68
2023/08/13 12:44:36;;;;;;;4.23;1.90;;;24.90;1.00;;;;;;5072775;28;20167;-72